createdAt,value
2022-08-10T00:01:53.193Z,22.16
2022-08-10T00:04:24.401Z,22.13
2022-08-10T00:06:54.249Z,21.92
2022-08-10T00:09:23.782Z,21.76
2022-08-10T00:11:52.176Z,21.82
2022-08-10T00:14:20.562Z,21.93
2022-08-10T00:16:48.943Z,21.75
2022-08-10T00:19:18.123Z,21.86
2022-08-10T00:21:48.749Z,22.02
2022-08-10T00:24:17.359Z,21.68
2022-08-10T00:27:53.034Z,21.93
2022-08-10T00:29:34.391Z,21.80
2022-08-10T00:32:03.136Z,21.97
2022-08-10T00:34:34.145Z,21.86
2022-08-10T00:37:04.079Z,21.98
2022-08-10T00:39:36.002Z,21.50
2022-08-10T00:42:08.282Z,21.44
2022-08-10T00:44:39.459Z,21.35
2022-08-10T00:47:21.304Z,21.36
2022-08-10T00:49:57.144Z,21.45
2022-08-10T00:52:30.849Z,21.65
2022-08-10T00:54:59.903Z,21.52
2022-08-10T00:57:28.731Z,21.26
2022-08-10T00:59:57.877Z,21.23
2022-08-10T01:02:29.913Z,21.40
2022-08-10T01:05:01.999Z,21.37
2022-08-10T01:07:52.009Z,21.46
2022-08-10T01:10:37.167Z,21.33
2022-08-10T01:13:13.203Z,21.32
2022-08-10T01:15:54.156Z,21.27
2022-08-10T01:18:37.662Z,21.47
2022-08-10T01:21:53.850Z,21.48
2022-08-10T01:25:22.347Z,21.48
2022-08-10T01:28:03.473Z,20.99
2022-08-10T01:30:36.334Z,21.34
2022-08-10T01:33:10.834Z,21.06
2022-08-10T01:35:47.932Z,21.44
2022-08-10T01:38:20.118Z,21.13
2022-08-10T01:40:54.753Z,21.28
2022-08-10T01:43:25.959Z,20.90
2022-08-10T01:46:00.592Z,21.21
2022-08-10T01:48:33.236Z,21.34
2022-08-10T01:51:15.411Z,21.27
2022-08-10T01:53:52.008Z,21.28
2022-08-10T01:56:30.277Z,21.01
2022-08-10T01:59:02.245Z,20.64
2022-08-10T02:01:38.880Z,20.99
2022-08-10T02:04:11.599Z,21.24
2022-08-10T02:06:43.662Z,20.83
2022-08-10T02:09:22.245Z,21.15
2022-08-10T02:12:06.407Z,21.08
2022-08-10T02:14:41.576Z,21.01
2022-08-10T02:17:59.678Z,21.09
2022-08-10T02:20:08.623Z,21.23
2022-08-10T02:22:39.308Z,21.12
2022-08-10T02:25:10.017Z,21.02
2022-08-10T02:27:59.505Z,21.13
2022-08-10T02:30:29.802Z,21.06
2022-08-10T02:33:01.309Z,21.01
2022-08-10T02:35:53.825Z,21.09
2022-08-10T02:38:57.582Z,21.11
2022-08-10T02:45:02.252Z,21.09
2022-08-10T02:45:25.440Z,21.04
2022-08-10T02:47:04.549Z,20.86
2022-08-10T02:49:42.822Z,20.97
2022-08-10T02:52:18.789Z,21.07
2022-08-10T02:54:53.542Z,20.89
2022-08-10T02:57:29.366Z,20.92
2022-08-10T03:00:03.434Z,20.89
2022-08-10T03:02:37.616Z,20.93
2022-08-10T03:05:11.833Z,20.92
2022-08-10T03:07:48.316Z,20.67
2022-08-10T03:10:20.733Z,20.82
2022-08-10T03:12:53.131Z,20.76
2022-08-10T03:15:24.389Z,20.80
2022-08-10T03:17:58.966Z,20.79
2022-08-10T03:20:37.617Z,20.56
2022-08-10T03:23:12.759Z,20.86
2022-08-10T03:25:41.474Z,20.89
2022-08-10T03:28:24.489Z,20.86
2022-08-10T03:30:53.714Z,20.83
2022-08-10T03:33:23.707Z,20.84
2022-08-10T03:36:42.599Z,20.87
2022-08-10T03:38:43.530Z,20.44
2022-08-10T03:41:16.647Z,20.84
2022-08-10T03:43:47.898Z,20.95
2022-08-10T03:46:19.882Z,21.02
2022-08-10T03:48:52.924Z,20.81
2022-08-10T03:51:24.226Z,20.82
2022-08-10T03:54:03.839Z,20.64
2022-08-10T03:56:37.780Z,20.48
2022-08-10T03:59:08.384Z,20.72
2022-08-10T04:02:44.919Z,20.78
2022-08-10T04:04:26.206Z,20.88
2022-08-10T04:06:58.818Z,20.70
2022-08-10T04:09:55.728Z,20.47
2022-08-10T04:12:18.078Z,20.32
2022-08-10T04:14:51.459Z,20.41
2022-08-10T04:18:01.125Z,19.66
2022-08-10T04:20:24.958Z,20.60
2022-08-10T04:22:57.260Z,20.79
2022-08-10T04:25:28.841Z,20.38
2022-08-10T04:27:57.599Z,20.44
2022-08-10T04:30:28.535Z,20.72
2022-08-10T04:33:00.529Z,20.43
2022-08-10T04:35:30.652Z,20.64
2022-08-10T04:38:02.129Z,20.84
2022-08-10T04:40:31.266Z,20.88
2022-08-10T04:43:07.392Z,20.85
2022-08-10T04:45:48.263Z,20.90
2022-08-10T04:48:42.523Z,21.00
2022-08-10T04:51:18.091Z,20.94
2022-08-10T04:54:04.778Z,20.91
2022-08-10T04:56:36.829Z,21.02
2022-08-10T04:59:06.728Z,20.89
2022-08-10T05:02:30.402Z,21.10
2022-08-10T05:04:33.826Z,21.01
2022-08-10T05:07:06.279Z,21.10
2022-08-10T05:10:01.516Z,21.02
2022-08-10T05:12:24.479Z,21.20
2022-08-10T05:14:53.911Z,20.96
2022-08-10T05:17:23.689Z,21.24
2022-08-10T05:20:04.685Z,21.29
2022-08-10T05:22:43.126Z,21.29
2022-08-10T05:25:15.192Z,21.32
2022-08-10T05:27:44.691Z,21.11
2022-08-10T05:30:16.116Z,21.23
2022-08-10T05:32:56.274Z,21.25
2022-08-10T05:35:55.318Z,21.48
2022-08-10T05:38:19.380Z,21.38
2022-08-10T05:40:50.491Z,21.30
2022-08-10T05:43:21.576Z,21.65
2022-08-10T05:46:18.084Z,21.53
2022-08-10T05:48:58.956Z,21.85
2022-08-10T05:51:30.648Z,21.81
2022-08-10T05:54:06.129Z,22.02
2022-08-10T05:56:53.650Z,22.10
2022-08-10T06:00:31.039Z,21.84
2022-08-10T06:02:33.779Z,22.21
2022-08-10T06:05:09.999Z,22.23
2022-08-10T06:07:45.713Z,22.61
2022-08-10T06:10:31.703Z,22.03
2022-08-10T06:13:29.885Z,22.72
2022-08-10T06:16:05.189Z,22.48
2022-08-10T06:18:34.149Z,22.74
2022-08-10T06:21:02.709Z,22.83
2022-08-10T06:23:32.833Z,23.21
2022-08-10T06:26:08.962Z,23.10
2022-08-10T06:28:52.974Z,23.01
2022-08-10T06:31:47.130Z,23.50
2022-08-10T06:34:21.334Z,23.86
2022-08-10T06:36:50.085Z,24.15
2022-08-10T06:39:35.211Z,23.91
2022-08-10T06:42:16.161Z,23.87
2022-08-10T06:45:09.141Z,24.23
2022-08-10T06:47:45.918Z,24.07
2022-08-10T06:50:45.093Z,24.62
2022-08-10T06:53:17.026Z,24.47
2022-08-10T06:55:56.820Z,24.73
2022-08-10T06:58:30.487Z,25.11
2022-08-10T07:01:03.003Z,25.13
2022-08-10T07:03:39.807Z,24.95
2022-08-10T07:06:12.609Z,25.33
2022-08-10T07:08:42.966Z,25.27
2022-08-10T07:11:12.625Z,25.56
2022-08-10T07:14:17.397Z,25.67
2022-08-10T07:16:32.702Z,25.70
2022-08-10T07:19:02.788Z,25.45
2022-08-10T07:21:32.284Z,25.64
2022-08-10T07:24:03.030Z,26.13
2022-08-10T07:26:33.293Z,26.19
2022-08-10T07:29:03.173Z,26.26
2022-08-10T07:31:55.418Z,26.32
2022-08-10T07:34:29.502Z,26.72
2022-08-10T07:37:05.921Z,26.61
2022-08-10T07:40:02.429Z,26.58
2022-08-10T07:42:31.273Z,27.27
2022-08-10T07:45:00.445Z,27.31
2022-08-10T07:47:52.379Z,26.98
2022-08-10T07:50:25.922Z,26.88
2022-08-10T07:53:01.064Z,27.31
2022-08-10T07:56:04.216Z,26.93
2022-08-10T07:58:19.519Z,27.71
2022-08-10T08:00:49.314Z,27.67
2022-08-10T08:03:25.203Z,27.62
2022-08-10T08:05:58.486Z,27.68
2022-08-10T08:08:33.362Z,27.78
2022-08-10T08:11:02.388Z,27.98
2022-08-10T08:13:31.899Z,27.48
2022-08-10T08:16:19.281Z,28.39
2022-08-10T08:19:27.921Z,28.40
2022-08-10T08:24:30.563Z,28.52
2022-08-10T08:24:38.298Z,28.14
2022-08-10T08:27:07.923Z,29.03
2022-08-10T08:29:41.933Z,28.37
2022-08-10T08:32:11.465Z,29.03
2022-08-10T08:34:46.149Z,28.72
2022-08-10T08:38:29.290Z,29.08
2022-08-10T08:40:12.914Z,29.03
2022-08-10T08:43:10.064Z,29.30
2022-08-10T08:46:02.767Z,29.57
2022-08-10T08:50:07.618Z,29.78
2022-08-10T08:52:29.000Z,30.20
2022-08-10T08:56:00.768Z,29.23
2022-08-10T08:58:17.316Z,30.03
2022-08-10T09:00:53.082Z,30.25
2022-08-10T09:03:48.225Z,30.68
2022-08-10T09:06:34.718Z,30.71
2022-08-10T09:09:41.398Z,30.72
2022-08-10T09:12:33.696Z,31.28
2022-08-10T09:15:07.625Z,31.18
2022-08-10T09:17:48.265Z,31.00
2022-08-10T09:20:30.525Z,31.29
2022-08-10T09:23:09.248Z,31.22
2022-08-10T09:25:45.238Z,31.30
2022-08-10T09:28:26.688Z,31.71
2022-08-10T09:31:22.341Z,31.02
2022-08-10T09:36:29.650Z,31.83
2022-08-10T09:37:05.014Z,32.19
2022-08-10T09:40:06.938Z,32.36
2022-08-10T09:42:57.255Z,32.62
2022-08-10T09:45:49.942Z,32.25
2022-08-10T09:48:31.872Z,32.15
2022-08-10T09:51:42.192Z,31.88
2022-08-10T09:54:08.295Z,32.84
2022-08-10T09:56:50.850Z,33.07
2022-08-10T10:00:01.538Z,33.21
2022-08-10T10:02:39.508Z,33.33
2022-08-10T10:05:30.904Z,33.31
2022-08-10T10:08:11.869Z,33.55
2022-08-10T10:10:58.283Z,32.71
2022-08-10T10:13:48.973Z,33.03
2022-08-10T10:16:44.578Z,33.23
2022-08-10T10:19:41.278Z,33.21
2022-08-10T10:22:28.995Z,32.89
2022-08-10T10:25:19.844Z,33.52
2022-08-10T10:28:03.649Z,33.42
2022-08-10T10:30:39.842Z,32.94
2022-08-10T10:33:19.819Z,33.40
2022-08-10T10:35:54.891Z,34.17
2022-08-10T10:38:26.949Z,34.35
2022-08-10T10:41:09.209Z,33.73
2022-08-10T10:43:48.644Z,33.94
2022-08-10T10:46:34.625Z,34.28
2022-08-10T10:49:22.865Z,34.24
2022-08-10T10:52:06.206Z,33.78
2022-08-10T10:54:45.578Z,33.32
2022-08-10T10:57:23.686Z,34.41
2022-08-10T11:00:16.039Z,34.17
2022-08-10T11:03:13.799Z,34.24
2022-08-10T11:06:17.858Z,34.75
2022-08-10T11:08:54.357Z,35.12
2022-08-10T11:12:01.978Z,35.13
2022-08-10T11:14:40.838Z,35.08
2022-08-10T11:17:36.457Z,34.93
2022-08-10T11:20:30.991Z,35.18
2022-08-10T11:23:24.858Z,35.20
2022-08-10T11:26:08.853Z,35.42
2022-08-10T11:28:46.211Z,35.92
2022-08-10T11:31:23.101Z,36.13
2022-08-10T11:34:48.367Z,36.46
2022-08-10T11:37:06.839Z,35.96
2022-08-10T11:39:53.657Z,36.25
2022-08-10T11:42:35.796Z,36.17
2022-08-10T11:45:11.720Z,35.83
2022-08-10T11:47:48.604Z,36.30
2022-08-10T11:50:24.936Z,36.30
2022-08-10T11:53:11.095Z,36.59
2022-08-10T11:55:45.630Z,35.96
2022-08-10T11:58:33.240Z,35.98
2022-08-10T12:01:15.864Z,36.70
2022-08-10T12:03:45.566Z,36.18
2022-08-10T12:06:51.987Z,35.95
2022-08-10T12:10:08.525Z,36.30
2022-08-10T12:12:03.625Z,35.60
2022-08-10T12:14:42.855Z,35.67
2022-08-10T12:17:19.806Z,35.98
2022-08-10T12:20:03.144Z,36.30
2022-08-10T12:22:40.184Z,35.76
2022-08-10T12:25:49.673Z,35.72
2022-08-10T12:28:15.089Z,35.86
2022-08-10T12:30:52.922Z,35.97
2022-08-10T12:33:28.170Z,36.66
2022-08-10T12:36:22.101Z,36.14
2022-08-10T12:39:02.882Z,36.02
2022-08-10T12:41:45.096Z,36.34
2022-08-10T12:44:24.092Z,36.29
2022-08-10T12:47:22.031Z,36.96
2022-08-10T12:50:30.639Z,36.39
2022-08-10T12:52:57.956Z,37.30
2022-08-10T12:55:39.174Z,37.35
2022-08-10T12:58:58.284Z,36.85
2022-08-10T13:01:15.525Z,37.64
2022-08-10T13:04:20.874Z,37.56
2022-08-10T13:06:43.420Z,36.74
2022-08-10T13:09:13.019Z,36.78
2022-08-10T13:12:35.400Z,37.45
2022-08-10T13:14:42.850Z,36.72
2022-08-10T13:17:14.717Z,37.12
2022-08-10T13:19:59.996Z,37.47
2022-08-10T13:22:36.073Z,37.72
2022-08-10T13:25:07.810Z,37.65
2022-08-10T13:28:02.651Z,38.16
2022-08-10T13:30:33.593Z,37.71
2022-08-10T13:33:09.586Z,37.56
2022-08-10T13:35:38.888Z,38.23
2022-08-10T13:38:11.446Z,37.56
2022-08-10T13:40:40.593Z,37.69
2022-08-10T13:43:11.211Z,38.21
2022-08-10T13:45:49.713Z,38.98
2022-08-10T13:48:23.613Z,39.24
2022-08-10T13:51:04.452Z,39.14
2022-08-10T13:53:37.531Z,39.16
2022-08-10T13:56:09.148Z,38.45
2022-08-10T13:58:43.258Z,38.99
2022-08-10T14:01:13.931Z,38.32
2022-08-10T14:03:45.798Z,39.28
2022-08-10T14:06:19.570Z,39.13
2022-08-10T14:08:52.677Z,39.53
2022-08-10T14:11:25.181Z,39.97
2022-08-10T14:14:00.904Z,40.13
2022-08-10T14:16:30.241Z,40.76
2022-08-10T14:19:05.982Z,41.38
2022-08-10T14:21:40.126Z,40.60
2022-08-10T14:24:22.754Z,40.84
2022-08-10T14:26:58.860Z,39.76
2022-08-10T14:29:30.000Z,41.65
2022-08-10T14:32:02.620Z,41.80
2022-08-10T14:36:16.760Z,41.83
2022-08-10T14:37:38.074Z,41.23
2022-08-10T14:40:12.492Z,42.49
2022-08-10T14:42:50.229Z,42.26
2022-08-10T14:45:24.737Z,42.79
2022-08-10T14:48:00.928Z,42.32
2022-08-10T14:50:34.536Z,42.28
2022-08-10T14:53:11.083Z,40.85
2022-08-10T14:55:59.264Z,42.72
2022-08-10T14:58:32.923Z,42.39
2022-08-10T15:01:06.681Z,42.16
2022-08-10T15:04:01.050Z,42.18
2022-08-10T15:06:31.410Z,42.31
2022-08-10T15:09:19.427Z,42.86
2022-08-10T15:12:15.857Z,42.44
2022-08-10T15:14:44.774Z,42.15
2022-08-10T15:17:17.193Z,42.57
2022-08-10T15:20:03.266Z,43.30
2022-08-10T15:22:50.236Z,43.04
2022-08-10T15:25:24.249Z,43.00
2022-08-10T15:27:58.101Z,42.64
2022-08-10T15:30:44.119Z,42.32
2022-08-10T15:33:57.437Z,43.21
2022-08-10T15:37:36.246Z,41.77
2022-08-10T15:40:21.199Z,42.51
2022-08-10T15:42:36.536Z,43.67
2022-08-10T15:45:06.673Z,43.12
2022-08-10T15:47:45.886Z,43.35
2022-08-10T15:50:22.886Z,42.88
2022-08-10T15:53:02.593Z,43.66
2022-08-10T15:55:41.359Z,44.42
2022-08-10T15:58:23.866Z,43.39
2022-08-10T16:02:04.233Z,43.49
2022-08-10T16:04:08.621Z,43.05
2022-08-10T16:06:44.370Z,43.39
2022-08-10T16:10:10.976Z,42.91
2022-08-10T16:12:16.478Z,43.20
2022-08-10T16:14:50.493Z,43.32
2022-08-10T16:17:21.901Z,43.66
2022-08-10T16:19:55.870Z,43.60
2022-08-10T16:22:35.680Z,42.32
2022-08-10T16:25:16.195Z,41.43
2022-08-10T16:27:47.002Z,42.65
2022-08-10T16:30:16.022Z,43.53
2022-08-10T16:32:47.517Z,43.50
2022-08-10T16:35:21.355Z,43.15
2022-08-10T16:37:57.388Z,43.76
2022-08-10T16:40:31.216Z,42.60
2022-08-10T16:43:08.940Z,42.50
2022-08-10T16:45:42.476Z,42.32
2022-08-10T16:48:12.169Z,41.15
2022-08-10T16:50:51.143Z,39.63
2022-08-10T16:53:24.120Z,39.77
2022-08-10T16:55:55.264Z,39.41
2022-08-10T16:58:29.912Z,38.28
2022-08-10T17:01:04.791Z,37.78
2022-08-10T17:04:07.650Z,37.35
2022-08-10T17:06:32.202Z,37.42
2022-08-10T17:09:04.774Z,36.22
2022-08-10T17:11:36.474Z,35.98
2022-08-10T17:14:10.583Z,36.28
2022-08-10T17:16:43.472Z,35.63
2022-08-10T17:19:15.260Z,34.63
2022-08-10T17:21:55.819Z,35.31
2022-08-10T17:24:35.274Z,34.35
2022-08-10T17:28:04.671Z,33.51
2022-08-10T17:30:05.863Z,34.06
2022-08-10T17:32:45.228Z,33.51
2022-08-10T17:35:24.285Z,33.37
2022-08-10T17:37:59.099Z,33.15
2022-08-10T17:40:29.744Z,33.05
2022-08-10T17:43:01.588Z,32.51
2022-08-10T17:45:47.767Z,32.73
2022-08-10T17:48:19.533Z,32.37
2022-08-10T17:50:52.627Z,32.65
2022-08-10T17:53:26.231Z,32.39
2022-08-10T17:55:57.457Z,32.26
2022-08-10T17:58:27.639Z,31.91
2022-08-10T18:01:41.025Z,31.93
2022-08-10T18:03:55.402Z,32.18
2022-08-10T18:06:24.508Z,31.96
2022-08-10T18:08:58.671Z,31.86
2022-08-10T18:11:30.728Z,31.79
2022-08-10T18:14:04.265Z,31.86
2022-08-10T18:16:36.064Z,31.61
2022-08-10T18:19:12.798Z,31.70
2022-08-10T18:21:44.603Z,31.53
2022-08-10T18:24:19.080Z,31.66
2022-08-10T18:26:51.093Z,31.52
2022-08-10T18:29:28.296Z,31.21
2022-08-10T18:32:04.086Z,31.04
2022-08-10T18:34:35.571Z,30.90
2022-08-10T18:37:24.432Z,31.32
2022-08-10T18:39:59.032Z,30.86
2022-08-10T18:42:40.682Z,30.49
2022-08-10T18:45:29.662Z,30.93
2022-08-10T18:48:09.397Z,30.89
2022-08-10T18:51:06.159Z,30.54
2022-08-10T18:53:39.239Z,30.67
2022-08-10T18:56:30.239Z,30.25
2022-08-10T18:59:20.688Z,30.21
2022-08-10T19:02:21.468Z,30.20
2022-08-10T19:05:30.865Z,30.20
2022-08-10T19:08:30.334Z,30.13
2022-08-10T19:11:07.845Z,30.02
2022-08-10T19:13:51.070Z,29.61
2022-08-10T19:16:48.013Z,29.87
2022-08-10T19:19:38.179Z,29.84
2022-08-10T19:22:15.935Z,29.89
2022-08-10T19:24:55.750Z,29.58
2022-08-10T19:27:43.541Z,29.63
2022-08-10T19:30:15.570Z,29.63
2022-08-10T19:33:01.163Z,29.87
2022-08-10T19:36:02.963Z,29.67
2022-08-10T19:38:49.630Z,29.56
2022-08-10T19:41:32.258Z,29.60
2022-08-10T19:44:13.350Z,29.47
2022-08-10T19:46:49.100Z,29.24
2022-08-10T19:49:36.802Z,29.23
2022-08-10T19:52:16.780Z,29.24
2022-08-10T19:54:59.754Z,28.93
2022-08-10T19:57:37.547Z,29.03
2022-08-10T20:00:19.223Z,29.16
2022-08-10T20:03:11.752Z,28.77
2022-08-10T20:06:13.504Z,28.52
2022-08-10T20:08:51.645Z,28.66
2022-08-10T20:11:45.917Z,28.44
2022-08-10T20:14:22.828Z,28.43
2022-08-10T20:16:56.417Z,28.49
2022-08-10T20:19:53.596Z,28.48
2022-08-10T20:22:29.740Z,28.14
2022-08-10T20:25:13.919Z,28.33
2022-08-10T20:27:59.426Z,28.15
2022-08-10T20:30:34.292Z,28.38
2022-08-10T20:33:11.060Z,28.39
2022-08-10T20:35:53.253Z,28.32
2022-08-10T20:38:29.419Z,28.29
2022-08-10T20:41:13.187Z,28.19
2022-08-10T20:44:01.167Z,27.95
2022-08-10T20:46:38.908Z,27.87
2022-08-10T20:49:23.756Z,27.59
2022-08-10T20:51:59.176Z,27.81
2022-08-10T20:54:37.067Z,27.80
2022-08-10T20:58:04.463Z,27.76
2022-08-10T21:00:36.760Z,27.82
2022-08-10T21:03:33.261Z,27.36
2022-08-10T21:06:41.088Z,27.72
2022-08-10T21:09:28.739Z,27.72
2022-08-10T21:12:19.675Z,27.69
2022-08-10T21:15:01.096Z,27.41
2022-08-10T21:17:51.923Z,27.10
2022-08-10T21:20:47.471Z,27.27
2022-08-10T21:23:30.301Z,27.31
2022-08-10T21:26:08.595Z,27.21
2022-08-10T21:29:06.244Z,27.24
2022-08-10T21:32:03.343Z,27.20
2022-08-10T21:35:02.222Z,27.02
2022-08-10T21:37:40.709Z,26.98
2022-08-10T21:40:35.570Z,26.94
2022-08-10T21:43:44.356Z,26.70
2022-08-10T21:46:54.720Z,27.06
2022-08-10T21:50:03.854Z,26.95
2022-08-10T21:53:00.888Z,26.87
2022-08-10T21:56:01.880Z,26.74
2022-08-10T21:58:54.597Z,26.82
2022-08-10T22:01:53.361Z,26.70
2022-08-10T22:04:40.167Z,26.66
2022-08-10T22:07:36.193Z,26.67
2022-08-10T22:10:25.682Z,26.65
2022-08-10T22:13:17.435Z,26.47
2022-08-10T22:16:13.828Z,26.38
2022-08-10T22:19:14.474Z,26.29
2022-08-10T22:22:27.659Z,26.16
2022-08-10T22:25:36.467Z,25.98
2022-08-10T22:28:22.337Z,26.02
2022-08-10T22:31:32.338Z,25.99
2022-08-10T22:34:37.376Z,25.39
2022-08-10T22:37:42.574Z,25.61
2022-08-10T22:40:38.173Z,25.65
2022-08-10T22:43:36.185Z,25.44
2022-08-10T22:46:31.960Z,25.58
2022-08-10T22:49:02.276Z,25.41
2022-08-10T22:51:44.522Z,25.61
2022-08-10T22:54:39.789Z,25.57
2022-08-10T22:57:31.894Z,25.28
2022-08-10T23:00:10.070Z,25.66
2022-08-10T23:02:39.844Z,25.73
2022-08-10T23:05:12.458Z,25.45
2022-08-10T23:07:49.899Z,25.56
2022-08-10T23:10:22.745Z,25.53
2022-08-10T23:13:06.425Z,25.58
2022-08-10T23:15:56.959Z,25.49
2022-08-10T23:18:53.343Z,25.49
2022-08-10T23:21:25.732Z,25.37
2022-08-10T23:24:15.708Z,25.49
2022-08-10T23:26:44.807Z,25.44
2022-08-10T23:29:17.781Z,25.19
2022-08-10T23:32:07.096Z,25.14
2022-08-10T23:34:37.770Z,25.32
2022-08-10T23:37:09.942Z,24.95
2022-08-10T23:39:42.190Z,25.28
2022-08-10T23:42:15.269Z,25.28
2022-08-10T23:44:58.666Z,25.44
2022-08-10T23:47:30.209Z,24.98
2022-08-10T23:50:00.017Z,25.06
2022-08-10T23:52:33.243Z,25.23
2022-08-10T23:55:07.298Z,25.24
2022-08-10T23:57:40.346Z,25.23
